Time;durP1;ratioP1;P1;durP2;ratioP2;P2;SDS_P1;SDS_P2;PMS_P1;PMS_P2;Temp;Humidity;BMP_temperature;BMP_pressure;BME280_temperature;BME280_humidity;BME280_pressure;Samples;Min_cycle;Max_cycle;Signal;HPM_P1;HPM_P2
2023/04/16 00:01:00;;;;;;;;;;;5.70;99.90;;;;;;8250551;28;19908;-80
2023/04/16 00:05:00;;;;;;;;;;;5.60;99.90;;;;;;8271002;28;19912;-80
2023/04/16 00:09:01;;;;;;;;;;;5.50;99.90;;;;;;8263277;28;19906;-81
2023/04/16 00:13:01;;;;;;;;;;;5.40;99.90;;;;;;8276649;28;19912;-80
2023/04/16 00:17:02;;;;;;;;;;;5.50;99.90;;;;;;8281395;28;20008;-81
2023/04/16 00:21:02;;;;;;;;;;;5.40;99.90;;;;;;8254999;28;19906;-80
2023/04/16 00:25:03;;;;;;;;;;;5.40;99.90;;;;;;8255162;28;20523;-80
2023/04/16 00:29:03;;;;;;;;;;;5.30;99.90;;;;;;8274104;28;19924;-80
2023/04/16 00:33:04;;;;;;;;;;;5.60;99.90;;;;;;8259408;28;20519;-79
2023/04/16 00:37:04;;;;;;;;;;;5.80;99.90;;;;;;8269897;28;20294;-80
2023/04/16 00:41:05;;;;;;;;;;;6.00;99.90;;;;;;8271028;28;20418;-81
2023/04/16 00:45:05;;;;;;;;;;;5.90;99.90;;;;;;8272373;28;20370;-81
2023/04/16 00:49:06;;;;;;;;;;;5.60;99.90;;;;;;8259195;28;20001;-81
2023/04/16 00:53:07;;;;;;;;;;;5.60;99.90;;;;;;8255273;28;20589;-81
2023/04/16 00:57:08;;;;;;;;;;;5.60;99.90;;;;;;8287419;28;19929;-82
2023/04/16 01:01:08;;;;;;;;;;;5.50;99.90;;;;;;8279630;28;20370;-82
2023/04/16 01:05:09;;;;;;;;;;;5.40;99.90;;;;;;8258498;28;20366;-81
2023/04/16 01:09:10;;;;;;;;;;;5.50;99.90;;;;;;8264559;28;19912;-82
2023/04/16 01:13:11;;;;;;;;;;;5.50;99.90;;;;;;8286568;28;19944;-82
2023/04/16 01:17:11;;;;;;;;;;;5.50;99.90;;;;;;8271797;28;20420;-82
2023/04/16 01:21:11;;;;;;;;;;;5.40;99.90;;;;;;8284649;28;20003;-81
2023/04/16 01:25:12;;;;;;;;;;;5.30;99.90;;;;;;8266164;28;19921;-82
2023/04/16 01:29:13;;;;;;;;;;;5.50;99.90;;;;;;8266343;28;19914;-81
2023/04/16 01:33:14;;;;;;;;;;;5.70;99.90;;;;;;8275510;28;19976;-82
2023/04/16 01:37:14;;;;;;;;;;;5.60;99.90;;;;;;8271889;28;20346;-82
2023/04/16 01:41:15;;;;;;;;;;;5.60;99.90;;;;;;8273008;28;19905;-83
2023/04/16 01:45:15;;;;;;;;;;;5.50;99.90;;;;;;8268835;28;19984;-82
2023/04/16 01:49:16;;;;;;;;;;;5.60;99.90;;;;;;8276613;28;19932;-82
2023/04/16 01:53:16;;;;;;;;;;;5.80;99.90;;;;;;8277850;28;20362;-82
2023/04/16 01:57:17;;;;;;;;;;;5.90;99.90;;;;;;8258545;28;20349;-82
2023/04/16 02:01:17;;;;;;;;;;;5.70;99.90;;;;;;8277700;28;19952;-81
2023/04/16 02:05:18;;;;;;;;;;;5.60;99.90;;;;;;8267217;28;19909;-82
2023/04/16 02:09:18;;;;;;;;;;;5.70;99.90;;;;;;8257059;28;19910;-82
2023/04/16 02:13:19;;;;;;;;;;;5.90;99.90;;;;;;8256312;28;19905;-82
2023/04/16 02:17:20;;;;;;;;;;;5.80;99.90;;;;;;8264303;28;19913;-82
2023/04/16 02:21:20;;;;;;;;;;;5.70;99.90;;;;;;8278816;28;19968;-82
2023/04/16 02:25:21;;;;;;;;;;;5.60;99.90;;;;;;8260450;28;19920;-81
2023/04/16 02:29:22;;;;;;;;;;;5.70;99.90;;;;;;8253429;28;19992;-81
2023/04/16 02:33:25;;;;;;;;;;;5.80;99.90;;;;;;8258590;28;20281;-81
2023/04/16 02:37:25;;;;;;;;;;;5.90;99.90;;;;;;8281708;28;19968;-81
2023/04/16 02:41:26;;;;;;;;;;;5.70;99.90;;;;;;8271104;28;20432;-81
2023/04/16 02:45:26;;;;;;;;;;;5.60;99.90;;;;;;8275606;28;19909;-81
2023/04/16 02:49:27;;;;;;;;;;;5.70;99.90;;;;;;8274093;28;19938;-81
2023/04/16 02:53:27;;;;;;;;;;;5.90;99.90;;;;;;8269072;28;19920;-82
2023/04/16 02:57:28;;;;;;;;;;;5.90;99.90;;;;;;8285009;28;19913;-82
2023/04/16 03:01:28;;;;;;;;;;;5.80;99.90;;;;;;8267676;28;20396;-81
2023/04/16 03:05:29;;;;;;;;;;;5.90;99.90;;;;;;8256286;28;19917;-82
2023/04/16 03:09:30;;;;;;;;;;;5.60;99.90;;;;;;8260022;28;19913;-82
2023/04/16 03:13:30;;;;;;;;;;;5.70;99.90;;;;;;8258837;28;19905;-82
2023/04/16 03:17:31;;;;;;;;;;;5.70;99.90;;;;;;8254371;28;20556;-82
2023/04/16 03:21:32;;;;;;;;;;;5.70;99.90;;;;;;8263360;28;19972;-82
2023/04/16 03:25:32;;;;;;;;;;;5.80;99.90;;;;;;8255254;28;19913;-82
2023/04/16 03:29:35;;;;;;;;;;;5.90;99.90;;;;;;8261864;28;19992;-82
2023/04/16 03:33:35;;;;;;;;;;;5.90;99.90;;;;;;8267337;28;19953;-82
2023/04/16 03:37:36;;;;;;;;;;;5.90;99.90;;;;;;8280508;28;20473;-82
2023/04/16 03:41:36;;;;;;;;;;;5.90;99.90;;;;;;8257863;28;20139;-82
2023/04/16 03:45:42;;;;;;;;;;;6.00;99.90;;;;;;8264211;28;19992;-83
2023/04/16 03:49:42;;;;;;;;;;;6.10;99.90;;;;;;8265742;28;19980;-82
2023/04/16 03:53:43;;;;;;;;;;;6.10;99.90;;;;;;8266801;28;19912;-82
2023/04/16 03:57:43;;;;;;;;;;;6.30;99.90;;;;;;8275722;28;19917;-82
2023/04/16 04:01:44;;;;;;;;;;;6.30;99.90;;;;;;8277631;28;19912;-82
2023/04/16 04:05:44;;;;;;;;;;;6.40;99.90;;;;;;8271952;28;20008;-82
2023/04/16 04:09:45;;;;;;;;;;;6.20;99.90;;;;;;8265293;28;20346;-82
2023/04/16 04:13:45;;;;;;;;;;;6.30;99.90;;;;;;8260772;28;19956;-82
2023/04/16 04:17:46;;;;;;;;;;;6.20;99.90;;;;;;8278622;28;19921;-82
2023/04/16 04:21:46;;;;;;;;;;;6.10;99.90;;;;;;8275625;28;19913;-82
2023/04/16 04:25:47;;;;;;;;;;;6.10;99.90;;;;;;8255393;28;20353;-82
2023/04/16 04:29:47;;;;;;;;;;;6.00;99.90;;;;;;8258037;28;19975;-82
2023/04/16 04:33:47;;;;;;;;;;;6.10;99.90;;;;;;8272727;28;19917;-82
2023/04/16 04:37:48;;;;;;;;;;;6.10;99.90;;;;;;8272237;28;19913;-82
2023/04/16 04:41:48;;;;;;;;;;;6.20;99.90;;;;;;8261972;28;19905;-81
2023/04/16 04:45:49;;;;;;;;;;;6.20;99.90;;;;;;8268818;28;20452;-81
2023/04/16 04:49:49;;;;;;;;;;;6.20;99.90;;;;;;8272371;28;19928;-81
2023/04/16 04:53:50;;;;;;;;;;;6.20;99.90;;;;;;8258062;28;19906;-81
2023/04/16 04:57:50;;;;;;;;;;;6.40;99.90;;;;;;8267678;28;20267;-82
2023/04/16 05:01:51;;;;;;;;;;;6.40;99.90;;;;;;8259776;28;20008;-82
2023/04/16 05:05:51;;;;;;;;;;;6.50;99.90;;;;;;8278503;28;19906;-82
2023/04/16 05:09:52;;;;;;;;;;;6.50;99.90;;;;;;8283886;28;20340;-82
2023/04/16 05:13:52;;;;;;;;;;;6.30;99.90;;;;;;8257191;28;19995;-81
2023/04/16 05:17:54;;;;;;;;;;;6.50;99.90;;;;;;8259811;28;19914;-81
2023/04/16 05:21:55;;;;;;;;;;;6.70;99.90;;;;;;8282904;28;19948;-81
2023/04/16 05:25:55;;;;;;;;;;;6.60;99.90;;;;;;8263389;28;19921;-81
2023/04/16 05:29:56;;;;;;;;;;;6.80;99.90;;;;;;8265212;28;19940;-81
2023/04/16 05:33:56;;;;;;;;;;;6.60;99.90;;;;;;8267619;28;20388;-81
2023/04/16 05:37:57;;;;;;;;;;;6.70;99.90;;;;;;8264004;28;19906;-81
2023/04/16 05:41:57;;;;;;;;;;;6.50;99.90;;;;;;8262265;28;20231;-81
2023/04/16 05:45:57;;;;;;;;;;;6.60;99.90;;;;;;8272418;28;19921;-80
2023/04/16 05:49:58;;;;;;;;;;;6.60;99.90;;;;;;8257765;28;19909;-80
2023/04/16 05:53:58;;;;;;;;;;;6.70;99.90;;;;;;8260083;28;19933;-81
2023/04/16 05:57:59;;;;;;;;;;;6.90;99.90;;;;;;8261399;28;19905;-80
2023/04/16 06:01:59;;;;;;;;;;;6.70;99.90;;;;;;8263227;28;19914;-80
2023/04/16 06:06:00;;;;;;;;;;;7.00;99.90;;;;;;8276392;28;19905;-80
2023/04/16 06:10:00;;;;;;;;;;;7.00;99.90;;;;;;8254822;28;19906;-81
2023/04/16 06:14:01;;;;;;;;;;;7.10;99.90;;;;;;8254447;28;20020;-80
2023/04/16 06:18:01;;;;;;;;;;;7.20;99.90;;;;;;8278634;28;19956;-80
2023/04/16 06:22:03;;;;;;;;;;;7.10;99.90;;;;;;8252965;28;20029;-80
2023/04/16 06:26:04;;;;;;;;;;;7.20;99.90;;;;;;8255814;28;19959;-80
2023/04/16 06:30:10;;;;;;;;;;;7.20;99.90;;;;;;8279598;28;20348;-81
2023/04/16 06:34:10;;;;;;;;;;;7.40;99.90;;;;;;8258726;28;19913;-81
2023/04/16 06:38:11;;;;;;;;;;;7.30;99.90;;;;;;8274506;28;20429;-81
2023/04/16 06:42:11;;;;;;;;;;;7.30;99.90;;;;;;8262248;28;19916;-80
2023/04/16 06:46:11;;;;;;;;;;;7.30;99.90;;;;;;8261626;28;19909;-80
2023/04/16 06:50:12;;;;;;;;;;;7.30;99.90;;;;;;8261064;28;19956;-81
2023/04/16 06:54:12;;;;;;;;;;;7.40;99.90;;;;;;8275746;28;19909;-81
2023/04/16 06:58:13;;;;;;;;;;;7.50;99.90;;;;;;8265708;28;19952;-80
2023/04/16 07:02:13;;;;;;;;;;;7.60;99.90;;;;;;8261693;28;19920;-81
2023/04/16 07:06:14;;;;;;;;;;;7.60;99.90;;;;;;8260009;28;19928;-81
2023/04/16 07:10:14;;;;;;;;;;;7.80;99.90;;;;;;8259349;28;19925;-81
2023/04/16 07:14:15;;;;;;;;;;;7.80;99.90;;;;;;8253403;28;20453;-80
2023/04/16 07:18:15;;;;;;;;;;;8.00;99.90;;;;;;8268237;28;19913;-81
2023/04/16 07:22:16;;;;;;;;;;;8.30;99.90;;;;;;8255388;28;19909;-81
2023/04/16 07:26:16;;;;;;;;;;;8.20;99.90;;;;;;8252018;28;20406;-80
2023/04/16 07:30:17;;;;;;;;;;;8.10;99.90;;;;;;8256899;28;19948;-80
2023/04/16 07:34:17;;;;;;;;;;;8.20;99.90;;;;;;8257821;28;20004;-81
2023/04/16 07:38:18;;;;;;;;;;;8.10;99.90;;;;;;8258834;28;20382;-81
2023/04/16 07:42:18;;;;;;;;;;;8.30;99.90;;;;;;8266546;28;19909;-81
2023/04/16 07:46:18;;;;;;;;;;;8.50;99.90;;;;;;8269438;28;19909;-81
2023/04/16 07:50:19;;;;;;;;;;;8.60;99.90;;;;;;8261321;28;19916;-81
2023/04/16 07:54:19;;;;;;;;;;;8.50;99.90;;;;;;8260400;28;19917;-80
2023/04/16 07:58:20;;;;;;;;;;;8.50;99.90;;;;;;8260871;28;19910;-82
2023/04/16 08:02:20;;;;;;;;;;;8.60;99.90;;;;;;8255762;28;20391;-81
2023/04/16 08:06:21;;;;;;;;;;;8.90;99.90;;;;;;8284316;28;19948;-81
2023/04/16 08:10:21;;;;;;;;;;;9.00;99.90;;;;;;8255796;28;19920;-81
2023/04/16 08:14:22;;;;;;;;;;;9.10;99.90;;;;;;8266690;28;19913;-81
2023/04/16 08:18:22;;;;;;;;;;;9.10;99.90;;;;;;8264462;28;19916;-81
2023/04/16 08:22:23;;;;;;;;;;;9.20;99.90;;;;;;8265942;28;20390;-81
2023/04/16 08:26:23;;;;;;;;;;;9.00;99.90;;;;;;8265955;28;20297;-81
2023/04/16 08:30:24;;;;;;;;;;;8.90;99.90;;;;;;8279250;28;20408;-80
2023/04/16 08:34:47;;;;;;;;;;;9.00;99.90;;;;;;8259582;28;19914;-90
2023/04/16 08:39:04;;;;;;;;;;;9.00;99.90;;;;;;8271125;28;19917;-89
2023/04/16 08:43:24;;;;;;;;;;;9.10;99.90;;;;;;8260917;28;19909;-88
2023/04/16 08:47:26;;;;;;;;;;;9.00;99.90;;;;;;8252380;28;20144;-89
2023/04/16 08:51:35;;;;;;;;;;;8.80;99.90;;;;;;8257953;28;20004;-83
2023/04/16 08:55:37;;;;;;;;;;;8.80;99.90;;;;;;8256003;28;20573;-81
2023/04/16 08:59:38;;;;;;;;;;;8.80;99.90;;;;;;8259083;28;19912;-81
2023/04/16 09:03:40;;;;;;;;;;;9.10;99.90;;;;;;8255507;28;19914;-81
2023/04/16 09:07:40;;;;;;;;;;;9.20;99.90;;;;;;8263110;28;19916;-81
2023/04/16 09:11:41;;;;;;;;;;;9.40;99.90;;;;;;8255665;28;19913;-80
2023/04/16 09:15:42;;;;;;;;;;;9.20;99.90;;;;;;8253670;28;20351;-80
2023/04/16 09:19:43;;;;;;;;;;;9.50;99.90;;;;;;8282097;28;19905;-80
2023/04/16 09:23:44;;;;;;;;;;;9.40;99.90;;;;;;8259294;28;19909;-81
2023/04/16 09:27:48;;;;;;;;;;;9.40;99.90;;;;;;8285654;28;19913;-81
2023/04/16 09:32:02;;;;;;;;;;;9.80;99.90;;;;;;8258064;28;19910;-79
2023/04/16 09:36:02;;;;;;;;;;;9.90;99.90;;;;;;8250754;28;19989;-80
2023/04/16 09:40:03;;;;;;;;;;;9.60;99.90;;;;;;8274469;28;19909;-80
2023/04/16 09:44:04;;;;;;;;;;;9.50;99.90;;;;;;8262017;28;19905;-79
2023/04/16 09:48:05;;;;;;;;;;;9.70;99.90;;;;;;8274092;28;19905;-81
2023/04/16 09:52:08;;;;;;;;;;;9.80;99.90;;;;;;8281421;28;19910;-82
2023/04/16 09:56:10;;;;;;;;;;;9.70;99.90;;;;;;8265218;28;19913;-81
2023/04/16 10:00:11;;;;;;;;;;;9.70;99.90;;;;;;8285619;28;20388;-81
2023/04/16 10:04:11;;;;;;;;;;;9.60;99.90;;;;;;8263196;28;19941;-81
2023/04/16 10:08:12;;;;;;;;;;;9.50;99.90;;;;;;8259346;28;20128;-81
2023/04/16 10:12:13;;;;;;;;;;;9.40;99.90;;;;;;8282985;28;19906;-81
2023/04/16 10:16:14;;;;;;;;;;;9.40;99.90;;;;;;8265642;28;19995;-81
2023/04/16 10:20:15;;;;;;;;;;;9.50;99.90;;;;;;8276828;28;19917;-81
2023/04/16 10:24:16;;;;;;;;;;;9.50;99.90;;;;;;8274410;28;19924;-80
2023/04/16 10:28:17;;;;;;;;;;;9.40;99.90;;;;;;8278837;28;20337;-81
2023/04/16 10:32:20;;;;;;;;;;;9.40;99.90;;;;;;8277806;28;19936;-80
2023/04/16 10:36:25;;;;;;;;;;;9.30;99.90;;;;;;8263839;28;19909;-80
2023/04/16 10:40:26;;;;;;;;;;;9.10;99.90;;;;;;8288164;28;19909;-80
2023/04/16 10:44:30;;;;;;;;;;;9.10;99.90;;;;;;8258756;28;20506;-81
2023/04/16 10:48:30;;;;;;;;;;;9.30;99.90;;;;;;8268248;28;19910;-80
2023/04/16 10:52:30;;;;;;;;;;;9.30;99.90;;;;;;8278319;28;20392;-80
2023/04/16 10:56:31;;;;;;;;;;;9.20;99.90;;;;;;8253467;28;20602;-81
2023/04/16 11:00:47;;;;;;;;;;;9.20;99.90;;;;;;8268063;28;19910;-80
2023/04/16 11:04:48;;;;;;;;;;;9.50;99.90;;;;;;8267288;28;20012;-80
2023/04/16 11:08:50;;;;;;;;;;;9.40;99.90;;;;;;8258966;28;19920;-80
2023/04/16 11:12:51;;;;;;;;;;;9.30;99.90;;;;;;8258631;28;19968;-80
2023/04/16 11:16:51;;;;;;;;;;;9.10;99.90;;;;;;8253868;28;19914;-81
2023/04/16 11:20:51;;;;;;;;;;;9.00;99.90;;;;;;8266897;28;20012;-81
2023/04/16 11:24:53;;;;;;;;;;;9.20;99.90;;;;;;8262529;28;19916;-81
2023/04/16 11:28:59;;;;;;;;;;;8.90;99.90;;;;;;8260611;28;20310;-81
2023/04/16 11:33:17;;;;;;;;;;;8.90;99.90;;;;;;8261835;28;19917;-81
2023/04/16 11:37:31;;;;;;;;;;;8.90;99.90;;;;;;8261693;28;19921;-81
2023/04/16 11:41:31;;;;;;;;;;;9.30;99.90;;;;;;8265489;28;19949;-81
2023/04/16 11:45:31;;;;;;;;;;;9.40;99.90;;;;;;8256607;28;19932;-80
2023/04/16 11:49:32;;;;;;;;;;;9.10;99.90;;;;;;8263141;28;19909;-81
2023/04/16 11:53:32;;;;;;;;;;;9.00;99.90;;;;;;8278132;28;20357;-81
2023/04/16 11:57:33;;;;;;;;;;;8.90;99.90;;;;;;8260995;28;19910;-81
2023/04/16 12:01:34;;;;;;;;;;;9.00;99.90;;;;;;8269357;28;20378;-81
2023/04/16 12:05:36;;;;;;;;;;;9.10;99.90;;;;;;8263804;28;19953;-81
2023/04/16 12:09:37;;;;;;;;;;;9.40;99.90;;;;;;8255402;28;20483;-83
2023/04/16 12:13:38;;;;;;;;;;;9.50;99.90;;;;;;8258319;28;19906;-80
2023/04/16 12:17:39;;;;;;;;;;;9.40;99.90;;;;;;8257334;28;19914;-80
2023/04/16 12:21:40;;;;;;;;;;;9.50;99.90;;;;;;8285190;28;19905;-80
2023/04/16 12:25:41;;;;;;;;;;;9.20;99.90;;;;;;8297968;23;19921;-81
2023/04/16 12:30:01;;;;;;;;;;;9.30;99.90;;;;;;8296946;28;19909;-82
2023/04/16 12:34:02;;;;;;;;;;;9.60;99.90;;;;;;8294509;28;20448;-81
2023/04/16 12:38:02;;;;;;;;;;;9.50;99.90;;;;;;8310066;28;19924;-81
2023/04/16 12:42:04;;;;;;;;;;;9.20;99.90;;;;;;8315357;28;19916;-81
2023/04/16 12:46:07;;;;;;;;;;;9.10;99.90;;;;;;8318512;28;19916;-81
2023/04/16 12:50:08;;;;;;;;;;;8.90;99.90;;;;;;8307439;28;20424;-81
2023/04/16 12:54:09;;;;;;;;;;;9.00;99.90;;;;;;8315187;28;19917;-79
2023/04/16 12:58:09;;;;;;;;;;;9.10;99.90;;;;;;8318355;28;20122;-80
2023/04/16 13:02:10;;;;;;;;;;;9.10;99.90;;;;;;8310662;28;20305;-80
2023/04/16 13:06:11;;;;;;;;;;;9.00;99.90;;;;;;8334626;28;20374;-80
2023/04/16 13:10:12;;;;;;;;;;;9.10;99.90;;;;;;8308174;28;20023;-80
2023/04/16 13:14:12;;;;;;;;;;;9.00;99.90;;;;;;8318497;28;19909;-81
2023/04/16 13:18:13;;;;;;;;;;;9.20;99.90;;;;;;8315863;28;20281;-81
2023/04/16 13:22:13;;;;;;;;;;;8.80;99.90;;;;;;8315899;28;19909;-81
2023/04/16 13:26:14;;;;;;;;;;;8.70;99.90;;;;;;8307066;28;20012;-80
2023/04/16 13:30:15;;;;;;;;;;;8.80;99.90;;;;;;8306946;28;19938;-80
2023/04/16 13:34:15;;;;;;;;;;;8.90;99.90;;;;;;8303304;28;19960;-80
2023/04/16 13:38:16;;;;;;;;;;;9.00;99.90;;;;;;8316418;28;19928;-80
2023/04/16 13:42:16;;;;;;;;;;;9.10;99.90;;;;;;8313556;28;19979;-80
2023/04/16 13:46:17;;;;;;;;;;;9.00;99.90;;;;;;8310814;28;19916;-81
2023/04/16 13:50:18;;;;;;;;;;;9.10;99.90;;;;;;8317775;28;20404;-82
2023/04/16 13:54:18;;;;;;;;;;;9.20;99.90;;;;;;8319994;28;19909;-79
2023/04/16 13:58:19;;;;;;;;;;;8.90;99.90;;;;;;8321101;28;19916;-81
2023/04/16 14:02:20;;;;;;;;;;;8.80;99.90;;;;;;8315099;28;20250;-80
2023/04/16 14:06:21;;;;;;;;;;;8.90;99.90;;;;;;8313471;28;19916;-79
2023/04/16 14:10:21;;;;;;;;;;;9.00;99.90;;;;;;8319161;28;20381;-82
2023/04/16 14:14:22;;;;;;;;;;;9.00;99.90;;;;;;8318333;28;19928;-79
2023/04/16 14:18:22;;;;;;;;;;;9.00;99.90;;;;;;8320385;28;19913;-80
2023/04/16 14:22:23;;;;;;;;;;;9.00;99.90;;;;;;8308862;28;19920;-80
2023/04/16 14:26:23;;;;;;;;;;;9.10;99.90;;;;;;8329220;28;19916;-79
2023/04/16 14:30:24;;;;;;;;;;;9.30;99.90;;;;;;8306451;28;19996;-80
2023/04/16 14:34:24;;;;;;;;;;;9.40;99.90;;;;;;8311188;28;19936;-79
2023/04/16 14:38:25;;;;;;;;;;;9.30;99.90;;;;;;8316410;28;20075;-80
2023/04/16 14:42:25;;;;;;;;;;;9.10;99.90;;;;;;8317310;28;19963;-79
2023/04/16 14:46:26;;;;;;;;;;;8.80;99.90;;;;;;8309739;28;19909;-79
2023/04/16 14:50:26;;;;;;;;;;;8.80;99.90;;;;;;8312638;28;19980;-80
2023/04/16 14:54:27;;;;;;;;;;;8.70;99.90;;;;;;8308840;28;20267;-80
2023/04/16 14:58:27;;;;;;;;;;;8.80;99.90;;;;;;8300777;28;19909;-80
2023/04/16 15:02:28;;;;;;;;;;;9.00;99.90;;;;;;8312289;28;20027;-80
2023/04/16 15:06:28;;;;;;;;;;;9.00;99.90;;;;;;8318512;28;19924;-79
2023/04/16 15:10:29;;;;;;;;;;;8.70;99.90;;;;;;8315246;28;19920;-79
2023/04/16 15:14:29;;;;;;;;;;;8.70;99.90;;;;;;8311327;28;19913;-80
2023/04/16 15:18:30;;;;;;;;;;;8.70;99.90;;;;;;8316149;28;19905;-80
2023/04/16 15:22:31;;;;;;;;;;;8.60;99.90;;;;;;8309744;28;19916;-79
2023/04/16 15:26:31;;;;;;;;;;;8.60;99.90;;;;;;8307711;28;19917;-79
2023/04/16 15:30:33;;;;;;;;;;;8.60;99.90;;;;;;8305566;28;19915;-86
2023/04/16 15:34:34;;;;;;;;;;;8.60;99.90;;;;;;8300273;28;19905;-87
2023/04/16 15:38:34;;;;;;;;;;;8.50;99.90;;;;;;8298220;28;19918;-78
2023/04/16 15:42:35;;;;;;;;;;;8.60;99.90;;;;;;8303822;28;19916;-80
2023/04/16 15:46:35;;;;;;;;;;;8.70;99.90;;;;;;8302764;28;19962;-80
2023/04/16 15:50:36;;;;;;;;;;;8.70;99.90;;;;;;8296243;28;19920;-79
2023/04/16 15:54:36;;;;;;;;;;;8.70;99.90;;;;;;8318219;28;19964;-79
2023/04/16 15:58:37;;;;;;;;;;;8.80;99.90;;;;;;8314092;28;20000;-80
2023/04/16 16:02:41;;;;;;;;;;;8.70;99.90;;;;;;8313207;28;19912;-78
2023/04/16 16:06:42;;;;;;;;;;;8.80;99.90;;;;;;8313074;28;20420;-78
2023/04/16 16:10:42;;;;;;;;;;;8.90;99.90;;;;;;8314604;28;19916;-79
2023/04/16 16:14:43;;;;;;;;;;;8.70;99.90;;;;;;8304505;28;19959;-79
2023/04/16 16:18:44;;;;;;;;;;;8.60;99.90;;;;;;8312218;28;19959;-79
2023/04/16 16:22:46;;;;;;;;;;;8.60;99.90;;;;;;8308718;28;19955;-79
2023/04/16 16:26:46;;;;;;;;;;;8.60;99.90;;;;;;8309466;28;19956;-79
2023/04/16 16:30:47;;;;;;;;;;;8.60;99.90;;;;;;8308432;28;19928;-80
2023/04/16 16:34:47;;;;;;;;;;;8.80;99.90;;;;;;8315464;28;19913;-79
2023/04/16 16:38:48;;;;;;;;;;;8.80;99.90;;;;;;8308487;28;19909;-79
2023/04/16 16:42:48;;;;;;;;;;;8.70;99.90;;;;;;8310527;28;19937;-79
2023/04/16 16:46:49;;;;;;;;;;;8.60;99.90;;;;;;8318856;28;19959;-80
2023/04/16 16:50:49;;;;;;;;;;;8.70;99.90;;;;;;8310562;28;19909;-80
2023/04/16 16:54:52;;;;;;;;;;;8.70;99.90;;;;;;8301744;28;19921;-81
2023/04/16 16:58:52;;;;;;;;;;;8.60;99.90;;;;;;8309520;28;19949;-80
2023/04/16 17:02:53;;;;;;;;;;;8.40;99.90;;;;;;8304245;28;19936;-80
2023/04/16 17:06:53;;;;;;;;;;;8.50;99.90;;;;;;8308405;28;19905;-80
2023/04/16 17:10:54;;;;;;;;;;;8.50;99.90;;;;;;8301262;28;20329;-80
2023/04/16 17:14:54;;;;;;;;;;;8.40;99.90;;;;;;8306990;28;19913;-80
2023/04/16 17:18:56;;;;;;;;;;;8.40;99.90;;;;;;8315906;28;19960;-80
2023/04/16 17:22:57;;;;;;;;;;;8.40;99.90;;;;;;8304767;28;19909;-80
2023/04/16 17:26:57;;;;;;;;;;;8.30;99.90;;;;;;8303956;28;20373;-79
2023/04/16 17:30:58;;;;;;;;;;;8.40;99.90;;;;;;8308158;28;19964;-79
2023/04/16 17:34:59;;;;;;;;;;;8.20;99.90;;;;;;8307837;28;19913;-80
2023/04/16 17:38:59;;;;;;;;;;;8.00;99.90;;;;;;8318021;28;19972;-80
2023/04/16 17:43:00;;;;;;;;;;;8.30;99.90;;;;;;8309728;28;19936;-80
2023/04/16 17:47:01;;;;;;;;;;;8.20;99.90;;;;;;8310486;28;20396;-80
2023/04/16 17:51:07;;;;;;;;;;;8.30;99.90;;;;;;8319343;28;19960;-80
2023/04/16 17:55:09;;;;;;;;;;;8.20;99.90;;;;;;8306267;28;20385;-80
2023/04/16 17:59:10;;;;;;;;;;;8.20;99.90;;;;;;8309421;28;19955;-81
2023/04/16 18:03:12;;;;;;;;;;;8.20;99.90;;;;;;8330968;28;19909;-81
2023/04/16 18:07:13;;;;;;;;;;;8.10;99.90;;;;;;8308507;28;19912;-80
2023/04/16 18:11:13;;;;;;;;;;;8.10;99.90;;;;;;8336192;28;19910;-80
2023/04/16 18:15:14;;;;;;;;;;;8.00;99.90;;;;;;8313218;28;19912;-81
2023/04/16 18:19:15;;;;;;;;;;;7.90;99.90;;;;;;8303023;28;19917;-80
2023/04/16 18:23:15;;;;;;;;;;;7.90;99.90;;;;;;8294303;28;19992;-80
2023/04/16 18:27:16;;;;;;;;;;;7.90;99.90;;;;;;8318261;28;19967;-80
2023/04/16 18:31:16;;;;;;;;;;;8.00;99.90;;;;;;8310347;28;19909;-80
2023/04/16 18:35:17;;;;;;;;;;;8.10;99.90;;;;;;8314520;28;19921;-80
2023/04/16 18:39:17;;;;;;;;;;;7.90;99.90;;;;;;8309855;28;19917;-80
2023/04/16 18:43:17;;;;;;;;;;;8.00;99.90;;;;;;8308846;28;19920;-80
2023/04/16 18:47:18;;;;;;;;;;;8.00;99.90;;;;;;8299104;28;20405;-79
2023/04/16 18:51:19;;;;;;;;;;;8.00;99.90;;;;;;8304411;28;19983;-80
2023/04/16 18:55:19;;;;;;;;;;;7.70;99.90;;;;;;8306121;28;19933;-80
2023/04/16 18:59:20;;;;;;;;;;;7.80;99.90;;;;;;8309870;28;20362;-81
2023/04/16 19:03:20;;;;;;;;;;;7.90;99.90;;;;;;8304385;28;19909;-81
2023/04/16 19:07:21;;;;;;;;;;;8.10;99.90;;;;;;8305479;28;20004;-81
2023/04/16 19:11:21;;;;;;;;;;;7.90;99.90;;;;;;8304661;28;20358;-80
2023/04/16 19:15:22;;;;;;;;;;;8.10;99.90;;;;;;8310258;28;20419;-81
2023/04/16 19:19:22;;;;;;;;;;;8.10;99.90;;;;;;8331888;28;19906;-81
2023/04/16 19:23:23;;;;;;;;;;;8.10;99.90;;;;;;8301216;28;19949;-80
2023/04/16 19:27:23;;;;;;;;;;;7.90;99.90;;;;;;8308173;28;19966;-81
2023/04/16 19:31:25;;;;;;;;;;;7.90;99.90;;;;;;8297445;28;19910;-81
2023/04/16 19:35:25;;;;;;;;;;;7.80;99.90;;;;;;8308541;28;19967;-82
2023/04/16 19:39:30;;;;;;;;;;;8.10;99.90;;;;;;8318535;28;19905;-81
2023/04/16 19:43:30;;;;;;;;;;;8.10;99.90;;;;;;8325289;28;20009;-80
2023/04/16 19:47:31;;;;;;;;;;;8.20;99.90;;;;;;8322863;28;19913;-81
2023/04/16 19:51:31;;;;;;;;;;;8.00;99.90;;;;;;8320289;28;19995;-81
2023/04/16 19:55:32;;;;;;;;;;;8.10;99.90;;;;;;8313633;28;19920;-80
2023/04/16 19:59:32;;;;;;;;;;;8.20;99.90;;;;;;8306731;28;19910;-80
2023/04/16 20:03:33;;;;;;;;;;;8.10;99.90;;;;;;8314683;28;19909;-80
2023/04/16 20:07:33;;;;;;;;;;;8.00;99.90;;;;;;8329423;28;19951;-79
2023/04/16 20:11:34;;;;;;;;;;;8.10;99.90;;;;;;8305637;28;19909;-80
2023/04/16 20:15:34;;;;;;;;;;;7.90;99.90;;;;;;8312818;28;19913;-79
2023/04/16 20:19:37;;;;;;;;;;;8.10;99.90;;;;;;8305373;28;19909;-80
2023/04/16 20:23:37;;;;;;;;;;;8.00;99.90;;;;;;8330177;28;19913;-79
2023/04/16 20:27:37;;;;;;;;;;;8.00;99.90;;;;;;8336781;28;19967;-79
2023/04/16 20:31:40;;;;;;;;;;;8.00;99.90;;;;;;8304410;28;19917;-80
2023/04/16 20:35:40;;;;;;;;;;;8.00;99.90;;;;;;8313089;28;19909;-79
2023/04/16 20:39:41;;;;;;;;;;;7.90;99.90;;;;;;8308420;28;20390;-79
2023/04/16 20:43:42;;;;;;;;;;;7.80;99.90;;;;;;8323305;28;19911;-79
2023/04/16 20:47:43;;;;;;;;;;;7.90;99.90;;;;;;8316020;28;19917;-78
2023/04/16 20:51:43;;;;;;;;;;;7.90;99.90;;;;;;8314089;28;19988;-79
2023/04/16 20:55:44;;;;;;;;;;;7.70;99.90;;;;;;8313166;28;19917;-80
2023/04/16 20:59:44;;;;;;;;;;;7.70;99.90;;;;;;8318380;28;19964;-79
2023/04/16 21:03:45;;;;;;;;;;;8.00;99.90;;;;;;8307990;28;19978;-80
2023/04/16 21:07:45;;;;;;;;;;;8.00;99.90;;;;;;8316961;28;19909;-80
2023/04/16 21:11:46;;;;;;;;;;;7.80;99.90;;;;;;8315821;28;19931;-80
2023/04/16 21:15:46;;;;;;;;;;;8.00;99.90;;;;;;8306808;28;19913;-81
2023/04/16 21:19:47;;;;;;;;;;;8.00;99.90;;;;;;8327692;28;19913;-80
2023/04/16 21:23:48;;;;;;;;;;;8.00;99.90;;;;;;8325672;28;19920;-80
2023/04/16 21:27:49;;;;;;;;;;;8.10;99.90;;;;;;8310193;28;20374;-79
2023/04/16 21:31:49;;;;;;;;;;;7.90;99.90;;;;;;8321465;28;19939;-80
2023/04/16 21:35:51;;;;;;;;;;;8.00;99.90;;;;;;8309396;28;19928;-78
2023/04/16 21:39:52;;;;;;;;;;;7.90;99.90;;;;;;8312881;28;19905;-80
2023/04/16 21:43:52;;;;;;;;;;;7.80;99.90;;;;;;8310524;28;19912;-80
2023/04/16 21:47:53;;;;;;;;;;;7.70;99.90;;;;;;8306057;28;20000;-80
2023/04/16 21:51:57;;;;;;;;;;;7.80;99.90;;;;;;8333845;28;19905;-80
2023/04/16 21:55:58;;;;;;;;;;;7.90;99.90;;;;;;8320613;28;19956;-81
2023/04/16 21:59:58;;;;;;;;;;;7.90;99.90;;;;;;8321864;28;19958;-79
2023/04/16 22:04:00;;;;;;;;;;;8.00;99.90;;;;;;8327919;28;19905;-80
2023/04/16 22:08:01;;;;;;;;;;;8.00;99.90;;;;;;8308968;28;19909;-80
2023/04/16 22:12:01;;;;;;;;;;;7.80;99.90;;;;;;8317766;28;19913;-80
2023/04/16 22:16:02;;;;;;;;;;;8.00;99.90;;;;;;8319775;28;19912;-80
2023/04/16 22:20:07;;;;;;;;;;;7.80;99.90;;;;;;8315688;28;19955;-80
2023/04/16 22:24:08;;;;;;;;;;;7.90;99.90;;;;;;8318075;28;19996;-80
2023/04/16 22:28:08;;;;;;;;;;;8.00;99.90;;;;;;8306630;28;19913;-80
2023/04/16 22:32:09;;;;;;;;;;;7.90;99.90;;;;;;8315229;28;19925;-80
2023/04/16 22:36:09;;;;;;;;;;;8.00;99.90;;;;;;8308028;28;19909;-80
2023/04/16 22:40:10;;;;;;;;;;;8.20;99.90;;;;;;8310367;28;19905;-80
2023/04/16 22:44:11;;;;;;;;;;;8.30;99.90;;;;;;8325287;28;19939;-80
2023/04/16 22:48:11;;;;;;;;;;;8.30;99.90;;;;;;8303286;28;19916;-79
2023/04/16 22:52:11;;;;;;;;;;;8.10;99.90;;;;;;8318643;28;19940;-79
2023/04/16 22:56:12;;;;;;;;;;;8.10;99.90;;;;;;8307612;28;19909;-79
2023/04/16 23:00:16;;;;;;;;;;;8.00;99.90;;;;;;8311282;28;19913;-79
2023/04/16 23:04:16;;;;;;;;;;;8.10;99.90;;;;;;8306265;28;19941;-79
2023/04/16 23:08:17;;;;;;;;;;;8.20;99.90;;;;;;8320830;28;19905;-80
2023/04/16 23:12:17;;;;;;;;;;;8.20;99.90;;;;;;8307968;28;20300;-80
2023/04/16 23:16:18;;;;;;;;;;;8.10;99.90;;;;;;8335619;28;19924;-80
2023/04/16 23:20:18;;;;;;;;;;;8.00;99.90;;;;;;8312677;28;19975;-78
2023/04/16 23:24:19;;;;;;;;;;;7.90;99.90;;;;;;8316305;28;19910;-79
2023/04/16 23:28:20;;;;;;;;;;;7.90;99.90;;;;;;8327799;28;19913;-80
2023/04/16 23:32:20;;;;;;;;;;;8.20;99.90;;;;;;8301743;28;20000;-80
2023/04/16 23:36:21;;;;;;;;;;;8.20;99.90;;;;;;8321079;28;20316;-80
2023/04/16 23:40:21;;;;;;;;;;;8.10;99.90;;;;;;8305480;28;19936;-79
2023/04/16 23:44:22;;;;;;;;;;;8.00;99.90;;;;;;8315765;28;20321;-79